createdAt,value
2022-12-27T00:02:26.301Z,97530.31
2022-12-27T00:04:55.095Z,97547.50
2022-12-27T00:07:23.425Z,97536.97
2022-12-27T00:09:51.853Z,97554.13
2022-12-27T00:12:20.441Z,97558.25
2022-12-27T00:14:49.002Z,97568.38
2022-12-27T00:17:18.622Z,97557.28
2022-12-27T00:19:47.264Z,97557.81
2022-12-27T00:22:15.849Z,97547.00
2022-12-27T00:24:44.151Z,97551.34
2022-12-27T00:27:12.496Z,97552.19
2022-12-27T00:29:41.529Z,97551.41
2022-12-27T00:32:10.113Z,97550.06
2022-12-27T00:34:39.814Z,97556.84
2022-12-27T00:37:08.583Z,97563.13
2022-12-27T00:39:37.189Z,97570.44
2022-12-27T00:42:05.982Z,97585.09
2022-12-27T00:44:34.385Z,97599.19
2022-12-27T00:47:02.662Z,97599.47
2022-12-27T00:49:31.282Z,97609.78
2022-12-27T00:52:00.958Z,97610.63
2022-12-27T00:54:29.418Z,97612.50
2022-12-27T00:56:58.037Z,97621.47
2022-12-27T00:59:26.684Z,97624.97
2022-12-27T01:01:55.373Z,97638.81
2022-12-27T01:04:24.059Z,97630.66
2022-12-27T01:06:52.701Z,97636.34
2022-12-27T01:09:22.331Z,97647.97
2022-12-27T01:11:50.549Z,97658.00
2022-12-27T01:14:18.851Z,97654.47
2022-12-27T01:16:47.398Z,97649.88
2022-12-27T01:19:16.181Z,97652.00
2022-12-27T01:21:44.865Z,97662.00
2022-12-27T01:24:13.483Z,97669.31
2022-12-27T01:26:43.164Z,97663.34
2022-12-27T01:29:13.794Z,97680.69
2022-12-27T01:31:42.188Z,97679.56
2022-12-27T01:34:10.823Z,97682.78
2022-12-27T01:36:39.198Z,97686.56
2022-12-27T01:39:08.454Z,97692.47
2022-12-27T01:41:58.021Z,97694.38
2022-12-27T01:44:57.345Z,97693.03
2022-12-27T01:47:36.210Z,97700.81
2022-12-27T01:50:17.223Z,97704.91
2022-12-27T01:52:54.838Z,97705.16
2022-12-27T01:55:29.948Z,97709.47
2022-12-27T01:58:02.271Z,97705.09
2022-12-27T02:00:32.404Z,97718.16
2022-12-27T02:03:05.199Z,97722.47
2022-12-27T02:05:35.551Z,97729.50
2022-12-27T02:08:27.034Z,97735.97
2022-12-27T02:10:56.812Z,97737.09
2022-12-27T02:13:26.040Z,97748.44
2022-12-27T02:15:55.695Z,97754.63
2022-12-27T02:18:24.687Z,97762.38
2022-12-27T02:21:33.656Z,97768.38
2022-12-27T02:24:25.246Z,97777.50
2022-12-27T02:27:03.034Z,97779.16
2022-12-27T02:30:02.980Z,97787.03
2022-12-27T02:32:37.680Z,97796.69
2022-12-27T02:35:15.364Z,97801.81
2022-12-27T02:37:50.272Z,97813.38
2022-12-27T02:40:41.799Z,97812.75
2022-12-27T02:43:28.762Z,97822.16
2022-12-27T02:46:24.147Z,97812.13
2022-12-27T02:49:13.266Z,97825.63
2022-12-27T02:52:19.006Z,97830.78
2022-12-27T02:55:13.479Z,97811.63
2022-12-27T02:57:52.873Z,97826.66
2022-12-27T03:00:47.611Z,97827.47
2022-12-27T03:03:44.732Z,97826.16
2022-12-27T03:06:47.465Z,97831.13
2022-12-27T03:10:00.304Z,97829.31
2022-12-27T03:13:02.771Z,97831.47
2022-12-27T03:16:02.121Z,97836.25
2022-12-27T03:18:58.683Z,97842.91
2022-12-27T03:21:50.080Z,97844.19
2022-12-27T03:24:39.544Z,97854.38
2022-12-27T03:27:18.073Z,97860.03
2022-12-27T03:30:12.499Z,97872.97
2022-12-27T03:33:04.752Z,97877.31
2022-12-27T03:35:42.762Z,97870.31
2022-12-27T03:38:13.987Z,97881.56
2022-12-27T03:41:07.889Z,97884.72
2022-12-27T03:43:39.207Z,97887.97
2022-12-27T03:46:34.359Z,97883.97
2022-12-27T03:49:22.230Z,97894.00
2022-12-27T03:51:58.345Z,97902.03
2022-12-27T03:54:30.633Z,97911.59
2022-12-27T03:57:03.117Z,97915.47
2022-12-27T03:59:31.996Z,97916.88
2022-12-27T04:02:02.570Z,97912.66
2022-12-27T04:04:31.593Z,97924.84
2022-12-27T04:07:01.313Z,97918.78
2022-12-27T04:09:46.947Z,97925.69
2022-12-27T04:12:32.788Z,97918.06
2022-12-27T04:15:18.964Z,97915.88
2022-12-27T04:18:04.978Z,97917.09
2022-12-27T04:20:51.322Z,97914.72
2022-12-27T04:23:38.508Z,97922.72
2022-12-27T04:26:24.233Z,97925.09
2022-12-27T04:29:10.419Z,97928.75
2022-12-27T04:31:56.843Z,97926.63
2022-12-27T04:34:43.909Z,97933.66
2022-12-27T04:37:15.145Z,97940.91
2022-12-27T04:40:08.784Z,97949.69
2022-12-27T04:42:53.839Z,97945.50
2022-12-27T04:45:54.946Z,97954.16
2022-12-27T04:48:41.127Z,97952.16
2022-12-27T04:51:28.094Z,97957.56
2022-12-27T04:54:14.396Z,97960.25
2022-12-27T04:56:44.039Z,97965.88
2022-12-27T04:59:29.908Z,97974.78
2022-12-27T05:02:04.634Z,97967.19
2022-12-27T05:04:36.633Z,97969.78
2022-12-27T05:07:21.521Z,97976.25
2022-12-27T05:10:07.821Z,97969.91
2022-12-27T05:12:55.096Z,97973.78
2022-12-27T05:15:23.738Z,97969.91
2022-12-27T05:17:52.427Z,97966.41
2022-12-27T05:20:21.108Z,97966.09
2022-12-27T05:23:07.289Z,97970.91
2022-12-27T05:25:37.045Z,97974.88
2022-12-27T05:28:08.762Z,97983.09
2022-12-27T05:30:39.366Z,97991.91
2022-12-27T05:33:08.542Z,97985.84
2022-12-27T05:35:37.195Z,97988.41
2022-12-27T05:38:07.390Z,97988.31
2022-12-27T05:40:36.643Z,97982.38
2022-12-27T05:43:06.921Z,97993.97
2022-12-27T05:45:35.579Z,97992.56
2022-12-27T05:48:04.275Z,97998.28
2022-12-27T05:50:32.928Z,97997.16
2022-12-27T05:53:18.939Z,98005.56
2022-12-27T05:55:55.697Z,97995.25
2022-12-27T05:58:26.511Z,97995.13
2022-12-27T06:00:55.187Z,98001.91
2022-12-27T06:03:24.344Z,98001.91
2022-12-27T06:05:53.038Z,98002.22
2022-12-27T06:08:21.662Z,98005.75
2022-12-27T06:10:50.310Z,98003.19
2022-12-27T06:13:18.918Z,98005.06
2022-12-27T06:15:48.532Z,98016.88
2022-12-27T06:18:17.118Z,98018.53
2022-12-27T06:20:45.739Z,98020.66
2022-12-27T06:23:14.323Z,98026.97
2022-12-27T06:25:42.602Z,98030.81
2022-12-27T06:28:11.215Z,98031.38
2022-12-27T06:30:39.808Z,98037.78
2022-12-27T06:33:09.444Z,98038.50
2022-12-27T06:35:38.114Z,98049.91
2022-12-27T06:38:06.696Z,98047.97
2022-12-27T06:40:35.301Z,98057.19
2022-12-27T06:43:04.004Z,98059.97
2022-12-27T06:45:33.170Z,98056.38
2022-12-27T06:48:01.564Z,98054.06
2022-12-27T06:50:31.974Z,98062.44
2022-12-27T06:53:00.574Z,98058.09
2022-12-27T06:55:28.863Z,98062.22
2022-12-27T06:57:57.423Z,98064.34
2022-12-27T07:00:26.051Z,98065.41
2022-12-27T07:02:55.670Z,98061.88
2022-12-27T07:05:24.419Z,98068.03
2022-12-27T07:07:54.705Z,98063.84
2022-12-27T07:10:23.358Z,98070.84
2022-12-27T07:12:51.943Z,98062.94
2022-12-27T07:15:20.593Z,98060.84
2022-12-27T07:17:49.155Z,98063.72
2022-12-27T07:20:17.876Z,98063.22
2022-12-27T07:22:46.141Z,98066.53
2022-12-27T07:25:15.984Z,98065.66
2022-12-27T07:27:44.343Z,98071.53
2022-12-27T07:30:13.073Z,98066.97
2022-12-27T07:32:41.704Z,98074.97
2022-12-27T07:35:10.582Z,98073.63
2022-12-27T07:37:39.299Z,98067.81
2022-12-27T07:40:10.695Z,98068.72
2022-12-27T07:42:40.298Z,98078.56
2022-12-27T07:45:10.532Z,98089.91
2022-12-27T07:47:38.793Z,98084.72
2022-12-27T07:50:08.304Z,98085.75
2022-12-27T07:52:36.774Z,98099.50
2022-12-27T07:55:05.875Z,98088.28
2022-12-27T07:57:34.468Z,98083.84
2022-12-27T08:00:06.280Z,98083.16
2022-12-27T08:02:40.079Z,98086.53
2022-12-27T08:05:09.305Z,98091.94
2022-12-27T08:07:39.453Z,98087.31
2022-12-27T08:10:08.962Z,98090.72
2022-12-27T08:12:37.644Z,98087.88
2022-12-27T08:15:08.833Z,98090.47
2022-12-27T08:17:37.659Z,98095.53
2022-12-27T08:20:07.265Z,98099.50
2022-12-27T08:22:35.881Z,98106.81
2022-12-27T08:25:04.946Z,98099.06
2022-12-27T08:27:33.581Z,98113.88
2022-12-27T08:30:02.245Z,98111.84
2022-12-27T08:32:32.269Z,98115.25
2022-12-27T08:35:18.342Z,98120.16
2022-12-27T08:37:49.152Z,98120.16
2022-12-27T08:40:17.965Z,98125.31
2022-12-27T08:42:46.885Z,98125.31
2022-12-27T08:45:15.897Z,98126.13
2022-12-27T08:47:45.832Z,98128.59
2022-12-27T08:50:14.071Z,98125.41
2022-12-27T08:52:43.337Z,98118.97
2022-12-27T08:55:12.250Z,98125.28
2022-12-27T08:57:40.945Z,98122.59
2022-12-27T09:00:11.123Z,98125.63
2022-12-27T09:02:39.840Z,98128.53
2022-12-27T09:05:10.299Z,98136.41
2022-12-27T09:07:38.867Z,98131.69
2022-12-27T09:10:08.743Z,98140.69
2022-12-27T09:12:37.425Z,98138.25
2022-12-27T09:15:07.196Z,98135.63
2022-12-27T09:17:35.878Z,98134.69
2022-12-27T09:20:04.751Z,98141.13
2022-12-27T09:22:35.416Z,98141.25
2022-12-27T09:25:03.679Z,98143.34
2022-12-27T09:27:32.487Z,98138.63
2022-12-27T09:30:01.108Z,98141.66
2022-12-27T09:32:30.484Z,98137.16
2022-12-27T09:34:59.051Z,98154.53
2022-12-27T09:37:27.876Z,98150.31
2022-12-27T09:39:57.793Z,98151.69
2022-12-27T09:42:53.547Z,98151.03
2022-12-27T09:45:37.893Z,98150.16
2022-12-27T09:48:13.026Z,98150.50
2022-12-27T09:50:52.786Z,98146.91
2022-12-27T09:53:28.048Z,98147.41
2022-12-27T09:55:58.918Z,98143.31
2022-12-27T09:58:42.224Z,98150.34
2022-12-27T10:01:24.702Z,98138.63
2022-12-27T10:03:54.231Z,98130.66
2022-12-27T10:06:49.398Z,98124.94
2022-12-27T10:09:42.726Z,98128.09
2022-12-27T10:12:36.038Z,98125.19
2022-12-27T10:15:20.420Z,98138.75
2022-12-27T10:18:02.276Z,98135.88
2022-12-27T10:20:47.079Z,98134.22
2022-12-27T10:23:22.783Z,98129.91
2022-12-27T10:25:59.176Z,98138.06
2022-12-27T10:28:38.453Z,98128.81
2022-12-27T10:31:08.073Z,98126.44
2022-12-27T10:33:36.935Z,98130.59
2022-12-27T10:36:13.768Z,98136.34
2022-12-27T10:38:42.209Z,98121.78
2022-12-27T10:41:34.540Z,98138.75
2022-12-27T10:44:10.443Z,98134.09
2022-12-27T10:46:40.008Z,98134.09
2022-12-27T10:49:23.954Z,98134.34
2022-12-27T10:51:54.937Z,98134.03
2022-12-27T10:54:26.758Z,98135.59
2022-12-27T10:56:55.887Z,98145.81
2022-12-27T10:59:28.265Z,98130.63
2022-12-27T11:02:19.750Z,98126.53
2022-12-27T11:04:59.513Z,98119.50
2022-12-27T11:07:31.990Z,98124.97
2022-12-27T11:10:09.988Z,98113.88
2022-12-27T11:12:38.563Z,98120.09
2022-12-27T11:15:20.239Z,98112.88
2022-12-27T11:17:53.239Z,98111.50
2022-12-27T11:20:27.411Z,98112.13
2022-12-27T11:23:00.668Z,98103.44
2022-12-27T11:25:31.404Z,98108.09
2022-12-27T11:28:07.503Z,98103.53
2022-12-27T11:30:42.413Z,98102.78
2022-12-27T11:33:24.726Z,98095.75
2022-12-27T11:35:58.184Z,98093.66
2022-12-27T11:38:29.514Z,98092.00
2022-12-27T11:41:06.652Z,98080.13
2022-12-27T11:43:48.681Z,98082.28
2022-12-27T11:46:29.927Z,98076.25
2022-12-27T11:48:59.869Z,98080.66
2022-12-27T11:51:47.707Z,98070.09
2022-12-27T11:54:55.054Z,98067.44
2022-12-27T11:57:48.248Z,98057.13
2022-12-27T12:00:21.853Z,98067.16
2022-12-27T12:03:47.739Z,98064.13
2022-12-27T12:06:22.619Z,98062.06
2022-12-27T12:09:21.046Z,98057.78
2022-12-27T12:12:25.448Z,98067.31
2022-12-27T12:15:31.194Z,98069.47
2022-12-27T12:18:25.332Z,98062.38
2022-12-27T12:21:27.597Z,98064.31
2022-12-27T12:24:22.852Z,98067.09
2022-12-27T12:27:19.523Z,98056.81
2022-12-27T12:30:13.551Z,98068.59
2022-12-27T12:33:01.669Z,98049.88
2022-12-27T12:35:53.612Z,98051.69
2022-12-27T12:38:28.392Z,98057.63
2022-12-27T12:41:32.369Z,98059.22
2022-12-27T12:44:33.125Z,98061.59
2022-12-27T12:47:24.118Z,98054.53
2022-12-27T12:50:13.182Z,98056.47
2022-12-27T12:53:04.119Z,98051.41
2022-12-27T12:56:03.258Z,98046.13
2022-12-27T12:58:52.576Z,98043.34
2022-12-27T13:01:52.700Z,98027.50
2022-12-27T13:04:52.964Z,98035.69
2022-12-27T13:07:47.391Z,98051.47
2022-12-27T13:11:00.511Z,98040.41
2022-12-27T13:13:47.798Z,98041.59
2022-12-27T13:16:31.631Z,98040.09
2022-12-27T13:19:17.514Z,98040.25
2022-12-27T13:22:03.228Z,98031.34
2022-12-27T13:24:52.344Z,98029.06
2022-12-27T13:27:36.382Z,98033.19
2022-12-27T13:30:19.750Z,98023.91
2022-12-27T13:33:20.818Z,98029.69
2022-12-27T13:36:04.988Z,98026.44
2022-12-27T13:38:45.256Z,98026.22
2022-12-27T13:41:30.872Z,98025.41
2022-12-27T13:44:31.011Z,98027.00
2022-12-27T13:47:27.849Z,98033.16
2022-12-27T13:50:44.954Z,98033.94
2022-12-27T13:53:59.775Z,98029.81
2022-12-27T13:56:54.838Z,98021.66
2022-12-27T14:00:04.268Z,98021.72
2022-12-27T14:03:30.623Z,98028.75
2022-12-27T14:06:23.787Z,98032.28
2022-12-27T14:09:29.141Z,98032.63
2022-12-27T14:12:41.626Z,98032.53
2022-12-27T14:15:20.056Z,98032.78
2022-12-27T14:18:05.773Z,98041.13
2022-12-27T14:21:07.618Z,98048.88
2022-12-27T14:23:54.596Z,98051.03
2022-12-27T14:27:25.859Z,98040.59
2022-12-27T14:30:33.032Z,98042.22
2022-12-27T14:34:01.174Z,98045.91
2022-12-27T14:37:20.606Z,98044.66
2022-12-27T14:40:34.872Z,98052.72
2022-12-27T14:44:21.963Z,98054.88
2022-12-27T14:47:34.868Z,98053.19
2022-12-27T14:50:57.268Z,98054.53
2022-12-27T14:54:40.548Z,98069.53
2022-12-27T14:57:27.505Z,98057.72
2022-12-27T15:00:14.493Z,98054.59
2022-12-27T15:03:14.799Z,98059.66
2022-12-27T15:06:05.300Z,98054.44
2022-12-27T15:09:07.507Z,98052.75
2022-12-27T15:11:58.970Z,98042.38
2022-12-27T15:14:55.339Z,98049.06
2022-12-27T15:17:40.625Z,98046.31
2022-12-27T15:20:28.171Z,98042.53
2022-12-27T15:23:09.420Z,98047.84
2022-12-27T15:25:52.874Z,98049.91
2022-12-27T15:28:40.074Z,98047.59
2022-12-27T15:31:22.407Z,98049.13
2022-12-27T15:34:20.240Z,98044.41
2022-12-27T15:36:52.196Z,98052.09
2022-12-27T15:39:51.803Z,98048.38
2022-12-27T15:42:52.445Z,98049.28
2022-12-27T15:45:43.656Z,98040.34
2022-12-27T15:48:49.986Z,98038.59
2022-12-27T15:51:35.917Z,98045.66
2022-12-27T15:54:29.970Z,98044.06
2022-12-27T15:57:37.986Z,98040.50
2022-12-27T16:00:18.646Z,98047.97
2022-12-27T16:02:56.394Z,98043.56
2022-12-27T16:05:45.704Z,98051.75
2022-12-27T16:08:38.809Z,98047.09
2022-12-27T16:11:13.548Z,98045.16
2022-12-27T16:13:49.813Z,98050.63
2022-12-27T16:17:05.858Z,98049.50
2022-12-27T16:20:01.538Z,98051.75
2022-12-27T16:22:37.109Z,98048.63
2022-12-27T16:25:31.285Z,98041.25
2022-12-27T16:28:09.018Z,98042.28
2022-12-27T16:30:51.121Z,98040.66
2022-12-27T16:33:37.974Z,98048.72
2022-12-27T16:36:24.589Z,98043.34
2022-12-27T16:39:27.718Z,98037.97
2022-12-27T16:42:09.768Z,98045.34
2022-12-27T16:45:02.855Z,98041.13
2022-12-27T16:47:58.746Z,98047.91
2022-12-27T16:50:55.455Z,98039.81
2022-12-27T16:54:03.248Z,98041.31
2022-12-27T16:56:34.513Z,98033.63
2022-12-27T16:59:03.146Z,98031.75
2022-12-27T17:02:03.989Z,98029.84
2022-12-27T17:04:58.425Z,98031.38
2022-12-27T17:08:14.365Z,98033.94
2022-12-27T17:11:05.119Z,98036.94
2022-12-27T17:13:49.909Z,98034.59
2022-12-27T17:16:24.241Z,98027.94
2022-12-27T17:18:58.473Z,98016.97
2022-12-27T17:21:31.215Z,98019.09
2022-12-27T17:24:02.622Z,98015.25
2022-12-27T17:26:59.494Z,98009.31
2022-12-27T17:29:53.302Z,98003.00
2022-12-27T17:32:39.433Z,98011.06
2022-12-27T17:35:27.249Z,98011.03
2022-12-27T17:38:22.936Z,98014.75
2022-12-27T17:41:01.280Z,98018.97
2022-12-27T17:44:00.010Z,98005.97
2022-12-27T17:46:40.849Z,98009.72
2022-12-27T17:49:11.789Z,98008.34
2022-12-27T17:52:06.709Z,98004.72
2022-12-27T17:54:52.990Z,98012.09
2022-12-27T17:57:39.466Z,98002.03
2022-12-27T18:00:23.532Z,98003.44
2022-12-27T18:02:54.622Z,98005.44
2022-12-27T18:05:28.490Z,98002.50
2022-12-27T18:08:05.327Z,98004.72
2022-12-27T18:10:37.157Z,97998.38
2022-12-27T18:13:08.340Z,97994.25
2022-12-27T18:15:44.149Z,97994.00
2022-12-27T18:18:21.887Z,97993.03
2022-12-27T18:20:57.423Z,97994.31
2022-12-27T18:23:27.895Z,97992.31
2022-12-27T18:26:02.553Z,97990.09
2022-12-27T18:28:34.031Z,97987.22
2022-12-27T18:31:14.892Z,97987.69
2022-12-27T18:33:47.545Z,97988.56
2022-12-27T18:36:26.918Z,97993.75
2022-12-27T18:39:00.815Z,97989.84
2022-12-27T18:41:40.100Z,97990.22
2022-12-27T18:44:20.022Z,97986.72
2022-12-27T18:46:54.954Z,97990.34
2022-12-27T18:49:27.232Z,97991.88
2022-12-27T18:51:56.383Z,97977.47
2022-12-27T18:54:34.853Z,97976.69
2022-12-27T18:57:06.524Z,97983.72
2022-12-27T18:59:37.143Z,97979.22
2022-12-27T19:02:36.065Z,97978.78
2022-12-27T19:05:24.736Z,97974.94
2022-12-27T19:07:59.132Z,97958.22
2022-12-27T19:10:30.060Z,97958.41
2022-12-27T19:12:59.511Z,97963.66
2022-12-27T19:15:37.335Z,97961.97
2022-12-27T19:18:21.364Z,97945.88
2022-12-27T19:20:57.491Z,97942.72
2022-12-27T19:23:33.621Z,97958.94
2022-12-27T19:26:08.248Z,97953.66
2022-12-27T19:28:36.993Z,97959.03
2022-12-27T19:31:19.857Z,97950.00
2022-12-27T19:33:54.243Z,97937.50
2022-12-27T19:36:28.942Z,97942.03
2022-12-27T19:38:57.722Z,97938.88
2022-12-27T19:41:27.251Z,97950.72
2022-12-27T19:43:56.790Z,97949.16
2022-12-27T19:46:30.954Z,97938.66
2022-12-27T19:49:40.197Z,97946.91
2022-12-27T19:51:50.044Z,97943.47
2022-12-27T19:54:22.031Z,97951.41
2022-12-27T19:56:50.827Z,97945.88
2022-12-27T19:59:25.207Z,97940.97
2022-12-27T20:01:54.313Z,97931.84
2022-12-27T20:04:24.309Z,97940.31
2022-12-27T20:06:54.536Z,97934.06
2022-12-27T20:09:23.673Z,97941.06
2022-12-27T20:11:52.418Z,97943.06
2022-12-27T20:14:20.689Z,97938.91
2022-12-27T20:16:49.453Z,97936.81
2022-12-27T20:19:20.168Z,97937.66
2022-12-27T20:21:49.959Z,97931.47
2022-12-27T20:24:18.549Z,97932.59
2022-12-27T20:26:47.217Z,97931.38
2022-12-27T20:29:16.092Z,97927.16
2022-12-27T20:31:48.551Z,97920.13
2022-12-27T20:34:17.512Z,97925.00
2022-12-27T20:36:45.994Z,97924.63
2022-12-27T20:39:16.496Z,97921.28
2022-12-27T20:41:45.179Z,97930.22
2022-12-27T20:44:14.721Z,97926.88
2022-12-27T20:46:43.213Z,97916.63
2022-12-27T20:49:11.827Z,97917.38
2022-12-27T20:51:41.593Z,97919.16
2022-12-27T20:54:15.197Z,97907.09
2022-12-27T20:56:43.504Z,97913.53
2022-12-27T20:59:12.069Z,97909.03
2022-12-27T21:01:40.894Z,97912.75
2022-12-27T21:04:10.431Z,97904.41
2022-12-27T21:06:39.117Z,97896.34
2022-12-27T21:09:09.241Z,97904.19
2022-12-27T21:11:38.945Z,97905.06
2022-12-27T21:14:07.637Z,97909.03
2022-12-27T21:16:36.791Z,97899.72
2022-12-27T21:19:06.709Z,97913.72
2022-12-27T21:21:37.898Z,97910.44
2022-12-27T21:24:10.769Z,97892.66
2022-12-27T21:26:41.911Z,97888.75
2022-12-27T21:29:12.288Z,97895.44
2022-12-27T21:31:41.485Z,97894.41
2022-12-27T21:34:10.537Z,97892.88
2022-12-27T21:36:39.461Z,97897.47
2022-12-27T21:39:08.666Z,97893.28
2022-12-27T21:41:40.980Z,97892.97
2022-12-27T21:44:15.372Z,97883.66
2022-12-27T21:46:48.509Z,97881.22
2022-12-27T21:49:20.298Z,97871.31
2022-12-27T21:51:49.943Z,97869.91
2022-12-27T21:54:19.234Z,97871.69
2022-12-27T21:56:50.809Z,97874.06
2022-12-27T21:59:24.205Z,97865.91
2022-12-27T22:01:53.406Z,97863.91
2022-12-27T22:04:39.856Z,97864.75
2022-12-27T22:07:13.552Z,97868.41
2022-12-27T22:09:42.475Z,97865.97
2022-12-27T22:12:14.010Z,97876.63
2022-12-27T22:14:47.014Z,97872.13
2022-12-27T22:17:26.002Z,97871.56
2022-12-27T22:20:01.511Z,97870.13
2022-12-27T22:22:30.750Z,97861.88
2022-12-27T22:25:13.486Z,97873.25
2022-12-27T22:28:15.142Z,97869.00
2022-12-27T22:30:44.088Z,97864.72
2022-12-27T22:33:13.356Z,97871.91
2022-12-27T22:35:42.166Z,97875.97
2022-12-27T22:38:11.018Z,97864.75
2022-12-27T22:40:46.109Z,97863.25
2022-12-27T22:43:17.532Z,97861.34
2022-12-27T22:45:53.489Z,97858.22
2022-12-27T22:48:22.806Z,97848.31
2022-12-27T22:51:05.504Z,97842.22
2022-12-27T22:53:34.620Z,97841.88
2022-12-27T22:56:04.807Z,97835.56
2022-12-27T22:58:36.421Z,97845.28
2022-12-27T23:01:11.236Z,97846.50
2022-12-27T23:03:42.587Z,97843.97
2022-12-27T23:06:34.659Z,97850.97
2022-12-27T23:09:03.868Z,97846.72
2022-12-27T23:11:40.612Z,97833.81
2022-12-27T23:14:12.900Z,97833.66
2022-12-27T23:16:45.523Z,97843.41
2022-12-27T23:19:19.348Z,97830.44
2022-12-27T23:22:01.728Z,97831.06
2022-12-27T23:24:34.221Z,97827.25
2022-12-27T23:27:09.201Z,97837.00
2022-12-27T23:29:39.697Z,97837.59
2022-12-27T23:32:08.597Z,97842.31
2022-12-27T23:34:37.374Z,97838.84
2022-12-27T23:37:06.160Z,97830.75
2022-12-27T23:39:35.409Z,97826.00
2022-12-27T23:42:04.244Z,97821.75
2022-12-27T23:44:34.852Z,97824.03
2022-12-27T23:47:06.559Z,97822.63
2022-12-27T23:49:37.435Z,97815.03
2022-12-27T23:52:06.494Z,97813.09
2022-12-27T23:54:35.500Z,97794.72
2022-12-27T23:57:22.345Z,97806.38
2022-12-27T23:59:52.183Z,97808.19
